createdAt,value
2022-12-12T00:00:25.387Z,7.18
2022-12-12T00:03:28.482Z,5.80
2022-12-12T00:06:31.757Z,6.03
2022-12-12T00:09:36.736Z,6.80
2022-12-12T00:12:39.751Z,5.93
2022-12-12T00:15:42.846Z,5.28
2022-12-12T00:18:46.220Z,5.03
2022-12-12T00:21:49.856Z,7.05
2022-12-12T00:24:54.274Z,5.68
2022-12-12T00:27:57.361Z,5.25
2022-12-12T00:31:00.507Z,5.82
2022-12-12T00:34:03.819Z,5.45
2022-12-12T00:37:06.746Z,9.23
2022-12-12T00:40:13.593Z,4.15
2022-12-12T00:43:16.839Z,6.68
2022-12-12T00:46:22.302Z,4.55
2022-12-12T00:49:25.368Z,4.88
2022-12-12T00:52:28.343Z,4.03
2022-12-12T00:55:32.755Z,5.25
2022-12-12T00:58:36.181Z,4.35
2022-12-12T01:01:39.297Z,4.90
2022-12-12T01:04:42.303Z,5.35
2022-12-12T01:07:45.317Z,4.15
2022-12-12T01:10:49.678Z,4.38
2022-12-12T01:13:54.450Z,4.55
2022-12-12T01:16:57.494Z,4.78
2022-12-12T01:20:00.420Z,6.03
2022-12-12T01:23:03.434Z,5.35
2022-12-12T01:26:10.049Z,4.38
2022-12-12T01:29:13.015Z,4.30
2022-12-12T01:32:15.967Z,4.75
2022-12-12T01:35:19.266Z,5.35
2022-12-12T01:38:22.588Z,4.90
2022-12-12T01:41:27.014Z,3.85
2022-12-12T01:44:43.406Z,4.50
2022-12-12T01:47:47.778Z,4.35
2022-12-12T01:50:51.929Z,3.63
2022-12-12T01:54:01.149Z,5.90
2022-12-12T01:57:09.649Z,4.78
2022-12-12T02:00:13.229Z,4.78
2022-12-12T02:03:20.221Z,6.30
2022-12-12T02:06:27.707Z,5.20
2022-12-12T02:09:31.058Z,5.05
2022-12-12T02:12:35.682Z,4.35
2022-12-12T02:15:43.738Z,3.60
2022-12-12T02:18:55.990Z,3.53
2022-12-12T02:22:04.230Z,4.80
2022-12-12T02:25:29.398Z,3.83
2022-12-12T02:28:59.739Z,4.30
2022-12-12T02:32:09.762Z,6.25
2022-12-12T02:35:20.201Z,4.20
2022-12-12T02:38:29.229Z,3.25
2022-12-12T02:41:39.090Z,4.60
2022-12-12T02:44:50.075Z,4.55
2022-12-12T02:48:00.030Z,4.90
2022-12-12T02:51:07.758Z,3.88
2022-12-12T02:54:16.064Z,4.32
2022-12-12T02:57:20.522Z,3.38
2022-12-12T03:00:23.636Z,3.33
2022-12-12T03:03:57.333Z,5.25
2022-12-12T03:07:26.578Z,4.18
2022-12-12T03:10:46.186Z,5.32
2022-12-12T03:13:57.490Z,4.63
2022-12-12T03:17:06.682Z,4.88
2022-12-12T03:20:17.393Z,3.78
2022-12-12T03:23:25.898Z,5.38
2022-12-12T03:26:33.207Z,2.90
2022-12-12T03:29:41.811Z,3.90
2022-12-12T03:32:52.049Z,3.83
2022-12-12T03:36:01.003Z,4.55
2022-12-12T03:39:10.063Z,3.40
2022-12-12T03:42:20.080Z,3.45
2022-12-12T03:45:28.649Z,3.00
2022-12-12T03:48:34.041Z,4.40
2022-12-12T03:51:44.911Z,2.90
2022-12-12T03:54:52.988Z,3.63
2022-12-12T03:58:00.545Z,4.07
2022-12-12T04:01:07.853Z,3.13
2022-12-12T04:04:16.392Z,3.10
2022-12-12T04:07:26.330Z,3.30
2022-12-12T04:10:51.021Z,4.25
2022-12-12T04:14:05.575Z,3.15
2022-12-12T04:17:12.451Z,3.83
2022-12-12T04:20:43.046Z,3.58
2022-12-12T04:24:00.573Z,3.03
2022-12-12T04:27:09.798Z,3.00
2022-12-12T04:30:15.223Z,3.22
2022-12-12T04:33:22.115Z,3.83
2022-12-12T04:36:26.673Z,2.90
2022-12-12T04:39:32.774Z,4.75
2022-12-12T04:42:39.888Z,2.80
2022-12-12T04:45:47.215Z,5.80
2022-12-12T04:48:54.990Z,3.25
2022-12-12T04:52:03.954Z,3.33
2022-12-12T04:55:14.032Z,3.08
2022-12-12T04:58:17.666Z,2.78
2022-12-12T05:01:27.651Z,3.65
2022-12-12T05:04:35.130Z,3.70
2022-12-12T05:07:41.026Z,2.65
2022-12-12T05:10:47.516Z,2.75
2022-12-12T05:13:51.425Z,2.95
2022-12-12T05:17:00.019Z,2.50
2022-12-12T05:20:03.092Z,3.97
2022-12-12T05:23:06.722Z,3.47
2022-12-12T05:26:12.098Z,3.40
2022-12-12T05:29:15.208Z,2.63
2022-12-12T05:32:18.212Z,2.75
2022-12-12T05:35:21.406Z,3.17
2022-12-12T05:38:24.405Z,3.65
2022-12-12T05:41:28.749Z,3.00
2022-12-12T05:44:32.066Z,2.80
2022-12-12T05:47:35.316Z,3.83
2022-12-12T05:50:38.277Z,3.28
2022-12-12T05:53:43.124Z,3.38
2022-12-12T05:56:47.802Z,2.72
2022-12-12T05:59:50.850Z,3.42
2022-12-12T06:02:54.506Z,2.35
2022-12-12T06:05:57.518Z,3.20
2022-12-12T06:09:00.794Z,2.53
2022-12-12T06:12:05.734Z,2.80
2022-12-12T06:15:09.969Z,3.78
2022-12-12T06:18:13.313Z,2.70
2022-12-12T06:21:16.290Z,2.33
2022-12-12T06:24:19.321Z,2.72
2022-12-12T06:27:23.767Z,2.53
2022-12-12T06:30:26.825Z,2.38
2022-12-12T06:33:31.854Z,2.35
2022-12-12T06:36:35.185Z,2.33
2022-12-12T06:39:38.910Z,2.20
2022-12-12T06:42:48.161Z,2.40
2022-12-12T06:45:52.075Z,3.22
2022-12-12T06:48:57.178Z,2.25
2022-12-12T06:52:00.073Z,2.90
2022-12-12T06:55:03.014Z,2.17
2022-12-12T06:58:07.426Z,2.00
2022-12-12T07:01:12.767Z,2.75
2022-12-12T07:04:15.843Z,5.10
2022-12-12T07:07:18.811Z,4.70
2022-12-12T07:10:21.918Z,2.17
2022-12-12T07:13:26.285Z,3.40
2022-12-12T07:16:29.273Z,3.65
2022-12-12T07:19:32.216Z,2.38
2022-12-12T07:22:35.245Z,2.67
2022-12-12T07:25:38.958Z,3.47
2022-12-12T07:28:43.426Z,2.58
2022-12-12T07:31:46.479Z,4.07
2022-12-12T07:34:49.385Z,2.65
2022-12-12T07:37:52.546Z,2.80
2022-12-12T07:40:55.798Z,2.15
2022-12-12T07:44:00.448Z,3.42
2022-12-12T07:47:03.523Z,2.05
2022-12-12T07:50:07.571Z,3.00
2022-12-12T07:53:10.607Z,3.53
2022-12-12T07:56:15.475Z,3.08
2022-12-12T07:59:20.263Z,5.78
2022-12-12T08:02:23.338Z,4.82
2022-12-12T08:05:26.426Z,5.03
2022-12-12T08:08:29.463Z,3.05
2022-12-12T08:11:32.584Z,2.75
2022-12-12T08:14:38.356Z,2.88
2022-12-12T08:17:41.730Z,2.33
2022-12-12T08:20:44.787Z,3.88
2022-12-12T08:23:47.798Z,2.97
2022-12-12T08:26:52.091Z,6.03
2022-12-12T08:29:56.763Z,3.72
2022-12-12T08:33:02.380Z,3.17
2022-12-12T08:36:14.364Z,2.40
2022-12-12T08:39:17.782Z,4.20
2022-12-12T08:42:21.138Z,2.20
2022-12-12T08:45:25.586Z,3.58
2022-12-12T08:48:28.762Z,2.60
2022-12-12T08:51:31.832Z,5.15
2022-12-12T08:54:34.825Z,4.70
2022-12-12T08:57:39.161Z,3.30
2022-12-12T09:00:43.530Z,10.18
2022-12-12T09:03:48.960Z,8.30
2022-12-12T09:06:51.973Z,4.70
2022-12-12T09:09:55.409Z,5.50
2022-12-12T09:12:58.470Z,11.77
2022-12-12T09:16:03.237Z,8.90
2022-12-12T09:19:06.463Z,13.27
2022-12-12T09:22:09.538Z,8.95
2022-12-12T09:25:12.794Z,6.85
2022-12-12T09:28:18.873Z,6.05
2022-12-12T09:31:23.462Z,7.57
2022-12-12T09:34:26.499Z,5.43
2022-12-12T09:37:31.095Z,7.00
2022-12-12T09:40:39.066Z,10.27
2022-12-12T09:43:49.390Z,12.43
2022-12-12T09:46:57.753Z,5.72
2022-12-12T09:50:05.291Z,11.60
2022-12-12T09:53:13.172Z,10.73
2022-12-12T09:56:22.683Z,7.13
2022-12-12T09:59:34.257Z,12.80
2022-12-12T10:03:06.293Z,7.43
2022-12-12T10:09:48.198Z,8.05
2022-12-12T10:12:52.303Z,7.53
2022-12-12T10:15:59.375Z,7.18
2022-12-12T10:19:11.376Z,8.50
2022-12-12T10:22:24.356Z,8.73
2022-12-12T10:25:40.417Z,7.40
2022-12-12T10:28:43.459Z,5.15
2022-12-12T10:31:56.965Z,7.43
2022-12-12T10:35:18.853Z,10.60
2022-12-12T10:38:46.084Z,4.63
2022-12-12T10:41:53.975Z,3.95
2022-12-12T10:45:29.556Z,4.25
2022-12-12T10:48:32.628Z,2.63
2022-12-12T10:51:37.082Z,8.13
2022-12-12T10:54:45.938Z,6.55
2022-12-12T10:57:48.954Z,10.07
2022-12-12T11:00:52.115Z,6.47
2022-12-12T11:03:57.198Z,2.60
2022-12-12T11:07:01.890Z,5.43
2022-12-12T11:10:21.431Z,3.53
2022-12-12T11:13:24.393Z,4.18
2022-12-12T11:16:29.369Z,3.67
2022-12-12T11:19:39.480Z,3.17
2022-12-12T11:22:43.980Z,2.72
2022-12-12T11:25:47.884Z,5.95
2022-12-12T11:28:56.481Z,2.53
2022-12-12T11:32:00.771Z,4.63
2022-12-12T11:35:07.679Z,6.25
2022-12-12T11:38:21.142Z,8.95
2022-12-12T11:41:25.346Z,13.68
2022-12-12T11:44:33.459Z,6.18
2022-12-12T11:47:41.873Z,5.97
2022-12-12T11:50:46.489Z,2.78
2022-12-12T11:53:50.837Z,5.18
2022-12-12T11:56:58.763Z,6.22
2022-12-12T12:00:14.411Z,4.15
2022-12-12T12:03:28.143Z,5.10
2022-12-12T12:06:41.293Z,5.93
2022-12-12T12:09:55.559Z,3.13
2022-12-12T12:13:13.134Z,4.93
2022-12-12T12:16:28.084Z,2.92
2022-12-12T12:19:38.234Z,2.40
2022-12-12T12:22:55.155Z,2.72
2022-12-12T12:26:06.269Z,5.05
2022-12-12T12:29:22.890Z,3.28
2022-12-12T12:32:35.473Z,5.15
2022-12-12T12:35:48.459Z,3.42
2022-12-12T12:38:58.129Z,2.55
2022-12-12T12:42:19.676Z,5.70
2022-12-12T12:45:29.401Z,1.88
2022-12-12T12:48:38.487Z,3.58
2022-12-12T12:51:50.207Z,2.83
2022-12-12T12:54:58.118Z,2.88
2022-12-12T12:58:07.003Z,3.05
2022-12-12T13:01:17.628Z,3.00
2022-12-12T13:04:25.461Z,3.80
2022-12-12T13:07:40.775Z,4.88
2022-12-12T13:10:48.574Z,3.15
2022-12-12T13:13:56.086Z,2.47
2022-12-12T13:17:06.436Z,2.42
2022-12-12T13:20:17.152Z,2.90
2022-12-12T13:23:37.310Z,3.40
2022-12-12T13:26:45.967Z,6.82
2022-12-12T13:29:54.843Z,2.47
2022-12-12T13:33:13.681Z,2.53
2022-12-12T13:36:27.573Z,6.47
2022-12-12T13:39:34.071Z,4.72
2022-12-12T13:42:55.364Z,4.68
2022-12-12T13:45:59.986Z,2.75
2022-12-12T13:49:25.653Z,3.92
2022-12-12T13:52:31.471Z,3.08
2022-12-12T13:55:34.607Z,4.22
2022-12-12T13:58:37.549Z,2.03
2022-12-12T14:01:42.038Z,2.72
2022-12-12T14:04:45.434Z,2.67
2022-12-12T14:07:50.558Z,3.72
2022-12-12T14:11:00.722Z,2.55
2022-12-12T14:14:21.603Z,4.55
2022-12-12T14:17:29.120Z,2.20
2022-12-12T14:20:34.861Z,2.55
2022-12-12T14:23:42.121Z,2.63
2022-12-12T14:26:50.039Z,4.93
2022-12-12T14:29:53.033Z,2.30
2022-12-12T14:33:07.610Z,1.52
2022-12-12T14:36:30.346Z,2.25
2022-12-12T14:39:57.545Z,2.00
2022-12-12T14:43:20.213Z,3.45
2022-12-12T14:46:25.396Z,1.55
2022-12-12T14:49:29.747Z,2.15
2022-12-12T14:52:32.706Z,2.83
2022-12-12T14:55:35.726Z,2.75
2022-12-12T14:58:42.218Z,2.50
2022-12-12T15:01:47.775Z,2.78
2022-12-12T15:05:00.956Z,2.88
2022-12-12T15:08:19.773Z,2.42
2022-12-12T15:11:26.111Z,1.75
2022-12-12T15:14:29.211Z,2.33
2022-12-12T15:17:34.242Z,3.25
2022-12-12T15:20:39.018Z,2.65
2022-12-12T15:23:42.924Z,1.52
2022-12-12T15:26:46.647Z,2.65
2022-12-12T15:29:49.943Z,2.42
2022-12-12T15:32:52.950Z,2.78
2022-12-12T15:36:02.740Z,1.80
2022-12-12T15:39:15.620Z,1.90
2022-12-12T15:42:19.323Z,2.92
2022-12-12T15:45:33.462Z,2.42
2022-12-12T15:48:36.446Z,1.58
2022-12-12T15:51:40.780Z,2.45
2022-12-12T15:54:48.766Z,2.78
2022-12-12T15:57:53.641Z,2.75
2022-12-12T16:01:05.647Z,2.40
2022-12-12T16:04:25.242Z,2.90
2022-12-12T16:07:36.392Z,4.00
2022-12-12T16:10:53.022Z,2.63
2022-12-12T16:13:56.000Z,3.25
2022-12-12T16:17:02.813Z,2.90
2022-12-12T16:20:08.207Z,3.35
2022-12-12T16:23:23.460Z,4.35
2022-12-12T16:26:26.858Z,4.03
2022-12-12T16:29:29.848Z,3.42
2022-12-12T16:32:34.742Z,4.75
2022-12-12T16:35:37.671Z,4.78
2022-12-12T16:38:43.287Z,2.72
2022-12-12T16:41:46.488Z,3.53
2022-12-12T16:44:49.669Z,2.20
2022-12-12T16:47:52.571Z,5.75
2022-12-12T16:50:59.435Z,3.53
2022-12-12T16:54:03.774Z,4.03
2022-12-12T16:57:06.802Z,3.95
2022-12-12T17:00:12.032Z,3.45
2022-12-12T17:03:17.103Z,2.15
2022-12-12T17:06:20.059Z,4.03
2022-12-12T17:09:29.865Z,4.03
2022-12-12T17:12:33.145Z,4.53
2022-12-12T17:15:36.280Z,3.25
2022-12-12T17:18:39.218Z,4.13
2022-12-12T17:21:42.203Z,2.58
2022-12-12T17:24:46.528Z,1.75
2022-12-12T17:27:49.546Z,2.00
2022-12-12T17:30:52.519Z,3.05
2022-12-12T17:33:55.671Z,2.45
2022-12-12T17:36:58.694Z,2.17
2022-12-12T17:40:03.487Z,3.05
2022-12-12T17:43:06.537Z,4.50
2022-12-12T17:46:14.637Z,2.95
2022-12-12T17:49:17.930Z,2.60
2022-12-12T17:52:21.060Z,2.80
2022-12-12T17:55:53.397Z,7.13
2022-12-12T17:58:49.453Z,2.60
2022-12-12T18:01:53.747Z,2.83
2022-12-12T18:04:56.779Z,2.85
2022-12-12T18:07:59.853Z,1.63
2022-12-12T18:11:07.537Z,4.07
2022-12-12T18:14:15.344Z,2.80
2022-12-12T18:17:18.385Z,4.15
2022-12-12T18:20:22.782Z,2.97
2022-12-12T18:23:27.375Z,3.03
2022-12-12T18:26:31.694Z,3.53
2022-12-12T18:29:34.741Z,1.98
2022-12-12T18:32:37.721Z,3.72
2022-12-12T18:35:40.725Z,3.15
2022-12-12T18:38:47.582Z,2.58
2022-12-12T18:41:53.033Z,2.70
2022-12-12T18:44:56.230Z,2.47
2022-12-12T18:47:59.727Z,3.05
2022-12-12T18:51:06.347Z,3.70
2022-12-12T18:54:14.281Z,4.45
2022-12-12T18:57:19.869Z,3.53
2022-12-12T19:00:22.899Z,2.30
2022-12-12T19:03:25.825Z,4.38
2022-12-12T19:06:33.778Z,3.28
2022-12-12T19:09:36.938Z,1.80
2022-12-12T19:12:41.379Z,4.90
2022-12-12T19:15:44.351Z,2.67
2022-12-12T19:18:47.969Z,1.83
2022-12-12T19:21:52.301Z,2.15
2022-12-12T19:24:55.336Z,2.53
2022-12-12T19:28:00.850Z,2.78
2022-12-12T19:31:08.476Z,4.45
2022-12-12T19:34:13.205Z,5.25
2022-12-12T19:37:16.178Z,2.80
2022-12-12T19:40:19.610Z,3.60
2022-12-12T19:43:23.977Z,3.17
2022-12-12T19:46:29.905Z,2.85
2022-12-12T19:49:33.201Z,4.20
2022-12-12T19:52:36.217Z,5.45
2022-12-12T19:55:39.772Z,4.95
2022-12-12T19:58:44.656Z,2.65
2022-12-12T20:01:49.422Z,3.33
2022-12-12T20:04:52.450Z,7.90
2022-12-12T20:07:55.457Z,4.90
2022-12-12T20:11:04.227Z,6.53
2022-12-12T20:14:14.422Z,7.78
2022-12-12T20:17:17.511Z,8.18
2022-12-12T20:20:20.491Z,4.65
2022-12-12T20:23:23.566Z,10.88
2022-12-12T20:26:28.990Z,6.03
2022-12-12T20:29:33.847Z,6.95
2022-12-12T20:32:36.913Z,7.45
2022-12-12T20:35:41.833Z,7.50
2022-12-12T20:38:45.732Z,10.35
2022-12-12T20:41:49.706Z,7.25
2022-12-12T20:44:54.166Z,6.70
2022-12-12T20:47:57.194Z,6.63
2022-12-12T20:51:01.050Z,8.10
2022-12-12T20:54:05.999Z,4.82
2022-12-12T20:57:08.985Z,7.47
2022-12-12T21:00:14.866Z,6.35
2022-12-12T21:03:18.158Z,5.95
2022-12-12T21:06:23.338Z,7.60
2022-12-12T21:09:26.979Z,9.88
2022-12-12T21:12:30.191Z,7.03
2022-12-12T21:15:34.601Z,6.65
2022-12-12T21:18:38.419Z,5.30
2022-12-12T21:21:42.600Z,7.55
2022-12-12T21:24:45.869Z,9.73
2022-12-12T21:27:48.847Z,7.72
2022-12-12T21:30:53.332Z,11.40
2022-12-12T21:33:57.098Z,9.07
2022-12-12T21:37:00.510Z,10.98
2022-12-12T21:40:03.823Z,7.85
2022-12-12T21:43:06.779Z,13.68
2022-12-12T21:46:14.627Z,8.90
2022-12-12T21:49:26.625Z,7.93
2022-12-12T21:52:29.859Z,8.38
2022-12-12T21:55:32.906Z,6.90
2022-12-12T21:58:37.729Z,8.55
2022-12-12T22:01:42.324Z,9.82
2022-12-12T22:04:45.447Z,7.35
2022-12-12T22:07:48.636Z,6.35
2022-12-12T22:10:54.481Z,6.80
2022-12-12T22:13:57.698Z,9.23
2022-12-12T22:17:02.883Z,6.80
2022-12-12T22:20:06.408Z,7.55
2022-12-12T22:23:09.602Z,5.40
2022-12-12T22:26:16.997Z,5.65
2022-12-12T22:29:21.254Z,10.98
2022-12-12T22:32:25.671Z,5.95
2022-12-12T22:35:28.718Z,9.60
2022-12-12T22:38:37.747Z,9.52
2022-12-12T22:41:41.249Z,8.27
2022-12-12T22:44:44.726Z,6.40
2022-12-12T22:47:49.151Z,7.28
2022-12-12T22:50:52.158Z,6.72
2022-12-12T22:53:56.574Z,7.97
2022-12-12T22:56:59.683Z,8.30
2022-12-12T23:00:02.849Z,8.48
2022-12-12T23:03:07.410Z,7.03
2022-12-12T23:06:13.265Z,5.90
2022-12-12T23:09:18.907Z,5.82
2022-12-12T23:12:24.679Z,4.53
2022-12-12T23:15:27.671Z,6.25
2022-12-12T23:18:32.903Z,5.97
2022-12-12T23:21:37.463Z,6.78
2022-12-12T23:24:40.448Z,4.68
2022-12-12T23:27:43.433Z,6.70
2022-12-12T23:30:46.419Z,5.95
2022-12-12T23:33:54.495Z,5.30
2022-12-12T23:36:58.213Z,6.30
2022-12-12T23:40:02.223Z,4.78
2022-12-12T23:43:05.182Z,3.70
2022-12-12T23:46:27.935Z,4.95
2022-12-12T23:49:32.494Z,6.30
2022-12-12T23:52:35.516Z,3.90
2022-12-12T23:55:38.625Z,6.13
2022-12-12T23:58:41.634Z,4.70
